ESKN

Stockholm Skavsta Airport

Stockholm / Nyköping, Sweden
METAR ESKN 211320Z 25015KT CAVOK 29/12 Q1006
Observed Flight Rules
Jul-21 @ 13:20 UTC (20 minutes ago) Visual Flight Rules
Wind Visibility Clouds
250° at 15 knots 10,000+ meters
  • Clear skies
Temperatures Readings
Current 29°C / 84°F
Dewpoint 12°C / 54°F
Humidity 35%
Altimeter 29.7" Hg
Pressure 1006 hPa
Elevation 43
METAR ESKN 211320Z 25015KT CAVOK 29/12 Q1006
Observed Flight Rules
Jul-21 @ 13:20 UTC
(20 minutes ago)
VFR
Wind Visibility
250° at 15 knots 10,000+ meters
Clouds
  • Clear skies
Temperature Dewpoint
29°C / 84°F 12°C / 54°F
Humidity Altimeter Pressure
35% 29.7" Hg 1006 hPa